createdAt,value
2022-12-11T00:04:03.262Z,99768.72
2022-12-11T00:09:04.968Z,99758.16
2022-12-11T00:14:06.529Z,99757.00
2022-12-11T00:19:08.197Z,99759.84
2022-12-11T00:24:09.869Z,99762.50
2022-12-11T00:29:14.609Z,99751.53
2022-12-11T00:34:16.278Z,99755.81
2022-12-11T00:39:17.858Z,99755.53
2022-12-11T00:44:19.465Z,99747.53
2022-12-11T00:49:21.057Z,99745.91
2022-12-11T00:54:22.621Z,99751.00
2022-12-11T00:59:24.202Z,99755.53
2022-12-11T01:04:26.549Z,99749.38
2022-12-11T01:09:46.684Z,99754.94
2022-12-11T01:14:48.243Z,99758.78
2022-12-11T01:19:49.830Z,99767.97
2022-12-11T01:24:51.413Z,99773.16
2022-12-11T01:29:53.005Z,99780.34
2022-12-11T01:34:54.778Z,99790.41
2022-12-11T01:39:56.425Z,99777.47
2022-12-11T01:45:27.530Z,99773.97
2022-12-11T01:50:31.544Z,99776.13
2022-12-11T01:55:33.892Z,99783.63
2022-12-11T02:00:35.538Z,99782.47
2022-12-11T02:05:37.172Z,99787.88
2022-12-11T02:10:44.363Z,99785.34
2022-12-11T02:16:03.343Z,99788.00
2022-12-11T02:21:22.244Z,99795.53
2022-12-11T02:26:42.368Z,99794.75
2022-12-11T02:31:53.728Z,99799.53
2022-12-11T02:37:01.644Z,99786.66
2022-12-11T02:42:04.127Z,99787.88
2022-12-11T02:47:08.768Z,99794.13
2022-12-11T02:52:14.253Z,99780.22
2022-12-11T02:57:35.934Z,99785.59
2022-12-11T03:02:39.426Z,99784.03
2022-12-11T03:07:43.451Z,99778.97
2022-12-11T03:12:53.228Z,99771.25
2022-12-11T03:18:13.107Z,99776.28
2022-12-11T03:23:14.559Z,99776.78
2022-12-11T03:28:25.829Z,99785.31
2022-12-11T03:33:36.607Z,99788.81
2022-12-11T03:38:51.922Z,99784.28
2022-12-11T03:43:57.147Z,99777.31
2022-12-11T03:49:03.324Z,99765.25
2022-12-11T03:54:05.721Z,99763.94
2022-12-11T03:59:09.750Z,99777.03
2022-12-11T04:04:11.429Z,99778.41
2022-12-11T04:09:13.183Z,99775.25
2022-12-11T04:14:33.117Z,99775.94
2022-12-11T04:19:53.179Z,99780.66
2022-12-11T04:24:54.782Z,99774.31
2022-12-11T04:29:56.336Z,99778.13
2022-12-11T04:34:57.902Z,99789.72
2022-12-11T04:39:59.456Z,99786.84
2022-12-11T04:45:01.107Z,99795.22
2022-12-11T04:50:03.846Z,99796.38
2022-12-11T04:55:07.624Z,99790.41
2022-12-11T05:00:11.438Z,99794.25
2022-12-11T05:05:13.517Z,99777.84
2022-12-11T05:10:15.320Z,99780.03
2022-12-11T05:15:17.082Z,99784.28
2022-12-11T05:20:18.737Z,99783.78
2022-12-11T05:25:20.283Z,99784.31
2022-12-11T05:30:21.913Z,99791.97
2022-12-11T05:35:23.458Z,99791.34
2022-12-11T05:40:25.067Z,99787.97
2022-12-11T05:45:26.603Z,99807.66
2022-12-11T05:50:28.219Z,99804.63
2022-12-11T05:55:29.744Z,99802.63
2022-12-11T06:00:35.916Z,99796.75
2022-12-11T06:05:39.470Z,99807.44
2022-12-11T06:10:48.735Z,99806.59
2022-12-11T06:15:50.433Z,99788.41
2022-12-11T06:20:51.996Z,99794.47
2022-12-11T06:25:53.594Z,99787.28
2022-12-11T06:30:59.215Z,99794.19
2022-12-11T06:36:05.888Z,99800.41
2022-12-11T06:41:08.515Z,99815.81
2022-12-11T06:46:13.349Z,99816.13
2022-12-11T06:51:17.242Z,99822.97
2022-12-11T06:56:19.154Z,99827.13
2022-12-11T07:01:25.998Z,99836.44
2022-12-11T07:06:28.582Z,99841.22
2022-12-11T07:11:30.171Z,99837.03
2022-12-11T07:16:31.765Z,99831.81
2022-12-11T07:21:33.486Z,99814.06
2022-12-11T07:26:37.584Z,99811.16
2022-12-11T07:31:39.215Z,99810.22
2022-12-11T07:36:41.207Z,99796.56
2022-12-11T07:41:43.170Z,99793.06
2022-12-11T07:46:47.481Z,99781.59
2022-12-11T07:51:50.111Z,99783.28
2022-12-11T07:56:53.921Z,99788.91
2022-12-11T08:01:55.793Z,99796.16
2022-12-11T08:06:57.707Z,99806.63
2022-12-11T08:11:59.264Z,99820.56
2022-12-11T08:17:02.459Z,99818.75
2022-12-11T08:22:04.233Z,99831.22
2022-12-11T08:27:05.946Z,99848.03
2022-12-11T08:32:12.061Z,99864.81
2022-12-11T08:37:14.068Z,99870.88
2022-12-11T08:42:15.641Z,99881.34
2022-12-11T08:47:17.687Z,99885.38
2022-12-11T08:52:21.627Z,99893.44
2022-12-11T08:57:25.601Z,99895.28
2022-12-11T09:02:27.222Z,99907.25
2022-12-11T09:07:28.788Z,99910.28
2022-12-11T09:12:31.279Z,99915.66
2022-12-11T09:17:35.433Z,99916.47
2022-12-11T09:22:37.055Z,99928.78
2022-12-11T09:27:38.665Z,99942.22
2022-12-11T09:32:40.207Z,99947.94
2022-12-11T09:37:41.798Z,99965.78
2022-12-11T09:43:28.750Z,99971.81
2022-12-11T09:48:34.112Z,99959.69
2022-12-11T09:53:36.895Z,99980.34
2022-12-11T09:58:38.457Z,99992.31
2022-12-11T10:04:07.929Z,100002.41
2022-12-11T10:09:34.084Z,100015.34
2022-12-11T10:14:54.018Z,100043.66
2022-12-11T10:20:00.446Z,100048.19
2022-12-11T10:25:13.883Z,100042.63
2022-12-11T10:30:30.389Z,100046.78
2022-12-11T10:35:53.741Z,100050.50
2022-12-11T10:40:58.672Z,100050.63
2022-12-11T10:46:00.489Z,100064.25
2022-12-11T10:51:05.489Z,100083.25
2022-12-11T10:56:10.029Z,100113.06
2022-12-11T11:01:19.115Z,100146.47
2022-12-11T11:06:22.741Z,100154.69
2022-12-11T11:11:29.903Z,100147.34
2022-12-11T11:16:32.062Z,100146.81
2022-12-11T11:21:35.861Z,100164.00
2022-12-11T11:27:11.154Z,100172.94
2022-12-11T11:32:14.480Z,100182.00
2022-12-11T11:37:31.845Z,100194.78
2022-12-11T11:42:45.772Z,100165.56
2022-12-11T11:47:59.902Z,100169.84
2022-12-11T11:53:14.366Z,100177.84
2022-12-11T11:58:23.092Z,100183.06
2022-12-11T12:03:25.644Z,100172.22
2022-12-11T12:08:41.681Z,100161.91
2022-12-11T12:14:22.789Z,100156.91
2022-12-11T12:20:05.353Z,100137.81
2022-12-11T12:25:25.774Z,100116.66
2022-12-11T12:30:34.574Z,100111.34
2022-12-11T12:35:50.427Z,100017.63
2022-12-11T12:41:04.125Z,99966.50
2022-12-11T12:46:21.529Z,99939.56
2022-12-11T12:51:23.841Z,99912.72
2022-12-11T12:56:27.911Z,99905.03
2022-12-11T13:01:31.484Z,99892.28
2022-12-11T13:06:39.186Z,99882.38
2022-12-11T13:11:41.115Z,99884.38
2022-12-11T13:16:47.838Z,99872.06
2022-12-11T13:21:58.054Z,99864.22
2022-12-11T13:27:23.908Z,99870.69
2022-12-11T13:32:31.010Z,99851.38
2022-12-11T13:37:36.708Z,99848.69
2022-12-11T13:42:50.368Z,99843.91
2022-12-11T13:47:52.052Z,99842.94
2022-12-11T13:52:55.668Z,99843.72
2022-12-11T13:57:57.935Z,99834.88
2022-12-11T14:03:04.731Z,99819.34
2022-12-11T14:08:11.736Z,99822.28
2022-12-11T14:13:20.561Z,99816.28
2022-12-11T14:18:26.623Z,99810.63
2022-12-11T14:23:33.962Z,99803.25
2022-12-11T14:28:41.531Z,99796.72
2022-12-11T14:33:48.622Z,99795.75
2022-12-11T14:38:57.184Z,99793.91
2022-12-11T14:44:01.886Z,99783.16
2022-12-11T14:49:08.848Z,99769.53
2022-12-11T14:54:38.602Z,99765.81
2022-12-11T14:59:45.822Z,99761.09
2022-12-11T15:05:00.863Z,99765.66
2022-12-11T15:10:04.123Z,99767.66
2022-12-11T15:15:07.454Z,99768.50
2022-12-11T15:20:19.958Z,99776.59
2022-12-11T15:25:23.862Z,99770.00
2022-12-11T15:30:30.132Z,99770.47
2022-12-11T15:35:31.836Z,99770.78
2022-12-11T15:40:33.434Z,99778.47
2022-12-11T15:45:35.742Z,99777.25
2022-12-11T15:50:37.299Z,99781.63
2022-12-11T15:55:39.296Z,99778.47
2022-12-11T16:00:41.038Z,99779.19
2022-12-11T16:05:42.877Z,99786.44
2022-12-11T16:10:45.637Z,99788.97
2022-12-11T16:15:48.884Z,99782.38
2022-12-11T16:20:53.400Z,99774.63
2022-12-11T16:25:54.966Z,99770.44
2022-12-11T16:30:56.588Z,99781.72
2022-12-11T16:35:59.223Z,99775.81
2022-12-11T16:41:01.810Z,99777.84
2022-12-11T16:46:03.795Z,99771.31
2022-12-11T16:51:05.679Z,99760.88
2022-12-11T16:56:08.530Z,99764.63
2022-12-11T17:01:14.738Z,99770.19
2022-12-11T17:06:17.668Z,99751.34
2022-12-11T17:11:22.335Z,99748.16
2022-12-11T17:16:26.207Z,99733.56
2022-12-11T17:21:27.890Z,99742.47
2022-12-11T17:26:29.504Z,99731.38
2022-12-11T17:31:31.181Z,99730.72
2022-12-11T17:36:33.211Z,99719.00
2022-12-11T17:41:34.766Z,99718.16
2022-12-11T17:46:36.365Z,99715.84
2022-12-11T17:51:38.063Z,99700.22
2022-12-11T17:56:42.010Z,99696.66
2022-12-11T18:01:43.678Z,99690.13
2022-12-11T18:06:45.303Z,99685.41
2022-12-11T18:11:46.974Z,99679.06
2022-12-11T18:16:48.823Z,99668.28
2022-12-11T18:21:50.481Z,99666.91
2022-12-11T18:26:52.038Z,99676.44
2022-12-11T18:31:54.015Z,99675.34
2022-12-11T18:36:55.660Z,99673.16
2022-12-11T18:42:24.361Z,99666.91
2022-12-11T18:47:18.804Z,99655.19
2022-12-11T18:52:20.494Z,99648.59
2022-12-11T18:57:22.262Z,99672.72
2022-12-11T19:02:23.895Z,99667.47
2022-12-11T19:07:25.551Z,99662.44
2022-12-11T19:12:27.149Z,99655.72
2022-12-11T19:17:28.713Z,99651.28
2022-12-11T19:22:30.266Z,99642.66
2022-12-11T19:27:32.061Z,99655.78
2022-12-11T19:32:36.423Z,99652.19
2022-12-11T19:37:38.235Z,99656.19
2022-12-11T19:42:40.038Z,99651.97
2022-12-11T19:47:41.629Z,99659.25
2022-12-11T19:52:46.328Z,99657.28
2022-12-11T19:57:48.209Z,99660.84
2022-12-11T20:02:49.773Z,99666.19
2022-12-11T20:07:52.149Z,99677.66
2022-12-11T20:12:56.573Z,99684.47
2022-12-11T20:18:00.249Z,99700.94
2022-12-11T20:23:03.380Z,99714.91
2022-12-11T20:28:05.176Z,99721.50
2022-12-11T20:33:06.763Z,99723.00
2022-12-11T20:38:09.131Z,99738.97
2022-12-11T20:43:10.803Z,99755.47
2022-12-11T20:48:12.394Z,99750.91
2022-12-11T20:53:13.947Z,99760.69
2022-12-11T20:58:15.564Z,99778.16
2022-12-11T21:03:17.379Z,99782.00
2022-12-11T21:08:18.978Z,99785.88
2022-12-11T21:13:20.599Z,99796.63
2022-12-11T21:18:22.160Z,99800.50
2022-12-11T21:23:23.696Z,99801.16
2022-12-11T21:28:29.286Z,99806.56
2022-12-11T21:33:34.827Z,99812.75
2022-12-11T21:38:36.573Z,99814.94
2022-12-11T21:43:52.562Z,99817.81
2022-12-11T21:48:59.913Z,99829.91
2022-12-11T21:54:01.531Z,99841.19
2022-12-11T21:59:03.235Z,99849.41
2022-12-11T22:04:06.803Z,99848.72
2022-12-11T22:09:08.630Z,99849.56
2022-12-11T22:14:13.254Z,99867.72
2022-12-11T22:19:14.864Z,99879.34
2022-12-11T22:24:16.426Z,99887.06
2022-12-11T22:29:18.024Z,99893.47
2022-12-11T22:34:19.662Z,99906.06
2022-12-11T22:39:21.222Z,99912.28
2022-12-11T22:44:22.794Z,99910.94
2022-12-11T22:49:24.326Z,99918.50
2022-12-11T22:54:25.977Z,99923.53
2022-12-11T22:59:27.629Z,99933.00
2022-12-11T23:04:29.187Z,99944.91
2022-12-11T23:09:30.778Z,99949.59
2022-12-11T23:14:32.351Z,99968.72
2022-12-11T23:19:34.666Z,99982.84
2022-12-11T23:24:36.221Z,99983.66
2022-12-11T23:29:37.847Z,99980.50
2022-12-11T23:34:39.399Z,99989.94
2022-12-11T23:39:40.951Z,100008.91
2022-12-11T23:44:42.490Z,100020.75
2022-12-11T23:49:44.053Z,100038.16
2022-12-11T23:54:45.589Z,100029.91
2022-12-11T23:59:47.266Z,100020.69
